createdAt,value
2019-01-30T00:00:45.805Z,20.68
2019-01-30T00:02:47.457Z,22.75
2019-01-30T00:04:49.452Z,26.00
2019-01-30T00:06:51.412Z,26.27
2019-01-30T00:08:53.096Z,19.57
2019-01-30T00:10:55.016Z,22.22
2019-01-30T00:12:56.981Z,17.17
2019-01-30T00:14:58.642Z,28.98
2019-01-30T00:17:00.593Z,32.13
2019-01-30T00:19:02.261Z,23.70
2019-01-30T00:21:03.922Z,25.88
2019-01-30T00:23:05.563Z,19.15
2019-01-30T00:25:07.248Z,24.23
2019-01-30T00:27:08.904Z,25.52
2019-01-30T00:29:10.561Z,21.73
2019-01-30T00:31:12.221Z,24.47
2019-01-30T00:33:14.437Z,21.17
2019-01-30T00:35:16.085Z,24.67
2019-01-30T00:37:18.028Z,23.50
2019-01-30T00:39:19.700Z,27.67
2019-01-30T00:41:21.344Z,28.02
2019-01-30T00:43:23.001Z,22.07
2019-01-30T00:45:24.660Z,18.48
2019-01-30T00:47:26.316Z,26.42
2019-01-30T00:49:27.969Z,20.23
2019-01-30T00:51:29.616Z,28.87
2019-01-30T00:53:31.552Z,23.90
2019-01-30T00:55:33.210Z,28.05
2019-01-30T00:57:34.869Z,17.20
2019-01-30T00:59:37.028Z,20.88
2019-01-30T01:01:38.693Z,21.05
2019-01-30T01:03:40.342Z,20.20
2019-01-30T01:05:42.112Z,23.00
2019-01-30T01:07:43.765Z,23.12
2019-01-30T01:09:45.993Z,21.05
2019-01-30T01:11:47.651Z,20.75
2019-01-30T01:13:49.406Z,17.37
2019-01-30T01:15:51.073Z,20.20
2019-01-30T01:17:52.834Z,19.15
2019-01-30T01:19:54.489Z,22.98
2019-01-30T01:21:56.158Z,24.30
2019-01-30T01:23:58.065Z,16.50
2019-01-30T01:25:59.729Z,14.23
2019-01-30T01:28:01.381Z,19.62
2019-01-30T01:30:04.682Z,30.25
2019-01-30T01:32:06.346Z,19.12
2019-01-30T01:34:08.014Z,16.27
2019-01-30T01:36:09.921Z,17.62
2019-01-30T01:38:11.589Z,18.42
2019-01-30T01:40:13.857Z,17.27
2019-01-30T01:42:15.805Z,21.68
2019-01-30T01:44:17.454Z,29.80
2019-01-30T01:46:19.119Z,16.25
2019-01-30T01:48:20.774Z,16.12
2019-01-30T01:50:22.425Z,18.98
2019-01-30T01:52:24.090Z,15.03
2019-01-30T01:54:25.762Z,17.70
2019-01-30T01:56:27.421Z,17.37
2019-01-30T01:58:29.070Z,16.40
2019-01-30T02:00:35.568Z,17.07
2019-01-30T02:02:34.375Z,15.70
2019-01-30T02:04:36.311Z,14.95
2019-01-30T02:06:37.967Z,12.65
2019-01-30T02:08:40.031Z,12.53
2019-01-30T02:10:41.994Z,12.80
2019-01-30T02:12:43.666Z,15.50
2019-01-30T02:14:45.311Z,18.42
2019-01-30T02:16:46.973Z,13.70
2019-01-30T02:18:48.626Z,10.58
2019-01-30T02:20:50.267Z,11.85
2019-01-30T02:22:52.200Z,9.98
2019-01-30T02:24:54.165Z,11.80
2019-01-30T02:26:56.112Z,12.78
2019-01-30T02:28:57.756Z,14.73
2019-01-30T02:30:59.433Z,12.80
2019-01-30T02:33:01.101Z,16.80
2019-01-30T02:35:03.146Z,11.33
2019-01-30T02:37:04.801Z,20.92
2019-01-30T02:39:06.457Z,11.90
2019-01-30T02:41:08.121Z,9.15
2019-01-30T02:43:09.777Z,12.33
2019-01-30T02:45:13.469Z,8.60
2019-01-30T02:47:15.228Z,12.68
2019-01-30T02:49:17.208Z,16.15
2019-01-30T02:51:18.852Z,10.05
2019-01-30T02:53:20.521Z,12.03
2019-01-30T02:55:22.425Z,14.38
2019-01-30T02:57:24.094Z,10.00
2019-01-30T02:59:25.745Z,9.50
2019-01-30T03:01:27.677Z,10.13
2019-01-30T03:03:29.341Z,13.25
2019-01-30T03:05:31.001Z,11.15
2019-01-30T03:07:32.655Z,9.25
2019-01-30T03:09:34.320Z,14.40
2019-01-30T03:11:35.969Z,10.35
2019-01-30T03:13:37.968Z,9.93
2019-01-30T03:15:39.597Z,15.15
2019-01-30T03:17:41.267Z,18.30
2019-01-30T03:19:42.906Z,9.23
2019-01-30T03:21:44.558Z,15.10
2019-01-30T03:23:46.211Z,9.38
2019-01-30T03:25:47.878Z,15.48
2019-01-30T03:27:49.549Z,13.10
2019-01-30T03:29:51.201Z,17.10
2019-01-30T03:31:53.175Z,11.40
2019-01-30T03:33:54.828Z,12.00
2019-01-30T03:35:56.489Z,10.82
2019-01-30T03:37:58.473Z,17.02
2019-01-30T03:40:00.175Z,11.08
2019-01-30T03:42:02.145Z,12.68
2019-01-30T03:44:03.810Z,13.35
2019-01-30T03:46:05.453Z,15.25
2019-01-30T03:48:07.417Z,19.85
2019-01-30T03:50:10.718Z,13.98
2019-01-30T03:52:12.356Z,15.20
2019-01-30T03:54:14.025Z,11.53
2019-01-30T03:56:15.677Z,17.12
2019-01-30T03:58:17.617Z,17.27
2019-01-30T04:00:21.256Z,16.12
2019-01-30T04:02:22.978Z,13.88
2019-01-30T04:04:24.641Z,18.45
2019-01-30T04:06:26.283Z,17.02
2019-01-30T04:08:27.956Z,22.48
2019-01-30T04:10:29.623Z,13.10
2019-01-30T04:12:31.269Z,15.53
2019-01-30T04:14:32.958Z,21.95
2019-01-30T04:16:34.692Z,16.57
2019-01-30T04:18:36.458Z,18.27
2019-01-30T04:20:38.428Z,24.57
2019-01-30T04:22:40.071Z,22.32
2019-01-30T04:24:41.796Z,22.55
2019-01-30T04:26:43.489Z,19.73
2019-01-30T04:28:45.143Z,22.75
2019-01-30T04:30:46.784Z,25.00
2019-01-30T04:32:48.428Z,26.52
2019-01-30T04:34:50.129Z,19.20
2019-01-30T04:36:51.784Z,19.07
2019-01-30T04:38:53.431Z,26.12
2019-01-30T04:40:55.088Z,29.02
2019-01-30T04:42:56.736Z,24.63
2019-01-30T04:44:58.395Z,23.10
2019-01-30T04:47:00.077Z,25.50
2019-01-30T04:49:02.078Z,30.50
2019-01-30T04:51:03.733Z,21.82
2019-01-30T04:53:05.689Z,28.20
2019-01-30T04:55:07.353Z,21.80
2019-01-30T04:57:09.005Z,31.07
2019-01-30T04:59:10.694Z,24.45
2019-01-30T05:01:12.347Z,29.23
2019-01-30T05:03:14.214Z,22.98
2019-01-30T05:05:15.894Z,26.65
2019-01-30T05:07:17.867Z,21.23
2019-01-30T05:09:19.525Z,17.62
2019-01-30T05:11:21.193Z,28.67
2019-01-30T05:13:22.841Z,32.98
2019-01-30T05:15:24.505Z,26.23
2019-01-30T05:17:26.166Z,28.38
2019-01-30T05:19:27.821Z,18.82
2019-01-30T05:21:29.482Z,23.22
2019-01-30T05:23:31.132Z,20.50
2019-01-30T05:25:32.797Z,21.77
2019-01-30T05:27:34.442Z,24.25
2019-01-30T05:29:36.080Z,21.20
2019-01-30T05:31:37.746Z,23.50
2019-01-30T05:33:39.393Z,23.20
2019-01-30T05:35:41.050Z,23.45
2019-01-30T05:37:42.697Z,24.32
2019-01-30T05:39:44.458Z,19.85
2019-01-30T05:41:46.114Z,24.72
2019-01-30T05:43:47.773Z,28.77
2019-01-30T05:45:49.421Z,27.62
2019-01-30T05:47:51.338Z,32.13
2019-01-30T05:49:52.993Z,25.60
2019-01-30T05:51:54.665Z,26.60
2019-01-30T05:53:56.570Z,34.05
2019-01-30T05:55:58.219Z,31.93
2019-01-30T05:57:59.881Z,32.63
2019-01-30T06:00:01.533Z,26.80
2019-01-30T06:02:11.917Z,48.33
2019-01-30T06:04:07.076Z,33.23
2019-01-30T06:06:08.732Z,28.17
2019-01-30T06:08:10.393Z,31.60
2019-01-30T06:10:12.057Z,37.00
2019-01-30T06:12:13.725Z,25.05
2019-01-30T06:14:15.383Z,26.02
2019-01-30T06:16:17.056Z,28.38
2019-01-30T06:18:18.708Z,24.23
2019-01-30T06:20:22.560Z,30.52
2019-01-30T06:22:24.220Z,28.67
2019-01-30T06:24:25.875Z,30.90
2019-01-30T06:26:27.529Z,33.73
2019-01-30T06:28:29.478Z,29.90
2019-01-30T06:30:31.451Z,29.18
2019-01-30T06:32:33.105Z,42.20
2019-01-30T06:34:34.751Z,49.63
2019-01-30T06:36:36.420Z,32.03
2019-01-30T06:38:38.065Z,37.67
2019-01-30T06:40:39.979Z,35.88
2019-01-30T06:42:41.670Z,30.60
2019-01-30T06:44:43.317Z,34.60
2019-01-30T06:46:44.977Z,27.75
2019-01-30T06:48:46.633Z,37.28
2019-01-30T06:50:48.290Z,33.08
2019-01-30T06:52:49.932Z,30.32
2019-01-30T06:54:51.570Z,26.95
2019-01-30T06:56:53.501Z,29.57
2019-01-30T06:58:55.151Z,36.25
2019-01-30T07:00:56.796Z,31.02
2019-01-30T07:02:58.912Z,38.67
2019-01-30T07:05:00.829Z,35.00
2019-01-30T07:07:02.540Z,38.15
2019-01-30T07:09:08.145Z,31.57
2019-01-30T07:11:10.971Z,38.73
2019-01-30T07:13:12.969Z,30.23
2019-01-30T07:15:14.628Z,43.08
2019-01-30T07:17:16.385Z,39.25
2019-01-30T07:19:18.053Z,36.13
2019-01-30T07:21:19.705Z,54.95
2019-01-30T07:23:21.387Z,47.67
2019-01-30T07:25:23.025Z,33.78
2019-01-30T07:27:24.933Z,38.80
2019-01-30T07:29:26.597Z,40.08
2019-01-30T07:31:28.349Z,42.03
2019-01-30T07:33:30.107Z,41.65
2019-01-30T07:35:32.209Z,41.20
2019-01-30T07:37:33.865Z,35.95
2019-01-30T07:39:35.532Z,36.25
2019-01-30T07:41:37.181Z,31.42
2019-01-30T07:43:38.908Z,43.70
2019-01-30T07:45:40.557Z,40.95
2019-01-30T07:47:42.201Z,41.18
2019-01-30T07:49:43.856Z,41.95
2019-01-30T07:51:45.504Z,40.23
2019-01-30T07:53:47.162Z,40.52
2019-01-30T07:55:49.080Z,37.28
2019-01-30T07:57:51.028Z,38.48
2019-01-30T07:59:52.700Z,41.80
2019-01-30T08:01:54.349Z,37.70
2019-01-30T08:03:56.004Z,39.13
2019-01-30T08:05:57.660Z,37.60
2019-01-30T08:07:59.308Z,38.33
2019-01-30T08:10:00.977Z,41.23
2019-01-30T08:12:02.897Z,33.88
2019-01-30T08:14:04.573Z,36.45
2019-01-30T08:16:06.512Z,43.10
2019-01-30T08:18:08.174Z,49.08
2019-01-30T08:20:12.277Z,34.63
2019-01-30T08:22:13.922Z,32.67
2019-01-30T08:24:15.596Z,35.95
2019-01-30T08:26:17.604Z,37.28
2019-01-30T08:28:20.116Z,31.95
2019-01-30T08:30:24.257Z,42.35
2019-01-30T08:32:26.005Z,35.17
2019-01-30T08:34:27.876Z,34.40
2019-01-30T08:36:29.536Z,32.83
2019-01-30T08:38:31.188Z,31.52
2019-01-30T08:40:32.853Z,27.65
2019-01-30T08:42:34.836Z,29.77
2019-01-30T08:44:46.684Z,33.00
2019-01-30T08:46:40.318Z,30.02
2019-01-30T08:48:41.961Z,38.85
2019-01-30T08:50:43.625Z,29.75
2019-01-30T08:52:45.281Z,38.90
2019-01-30T08:54:46.952Z,33.92
2019-01-30T08:56:52.957Z,44.70
2019-01-30T08:58:52.140Z,40.03
2019-01-30T09:00:53.809Z,35.52
2019-01-30T09:02:55.466Z,30.90
2019-01-30T09:04:57.123Z,34.30
2019-01-30T09:06:59.085Z,34.25
2019-01-30T09:09:01.120Z,33.35
2019-01-30T09:11:02.808Z,34.50
2019-01-30T09:13:04.448Z,31.50
2019-01-30T09:15:08.469Z,29.48
2019-01-30T09:17:10.141Z,38.28
2019-01-30T09:19:11.793Z,26.90
2019-01-30T09:21:13.454Z,30.50
2019-01-30T09:23:15.110Z,26.40
2019-01-30T09:25:18.465Z,25.32
2019-01-30T09:27:20.113Z,27.98
2019-01-30T09:29:21.776Z,27.35
2019-01-30T09:31:23.696Z,26.97
2019-01-30T09:33:26.302Z,28.65
2019-01-30T09:35:28.252Z,25.85
2019-01-30T09:37:30.150Z,20.37
2019-01-30T09:39:31.937Z,25.25
2019-01-30T09:41:34.005Z,32.70
2019-01-30T09:43:35.655Z,27.52
2019-01-30T09:45:37.333Z,29.52
2019-01-30T09:47:39.287Z,26.00
2019-01-30T09:49:41.331Z,24.30
2019-01-30T09:51:43.286Z,27.27
2019-01-30T09:53:44.940Z,26.25
2019-01-30T09:55:46.626Z,24.10
2019-01-30T09:57:48.360Z,20.65
2019-01-30T09:59:50.074Z,20.90
2019-01-30T10:01:51.745Z,27.25
2019-01-30T10:03:53.400Z,32.37
2019-01-30T10:05:55.075Z,21.35
2019-01-30T10:07:57.003Z,21.50
2019-01-30T10:09:58.974Z,20.02
2019-01-30T10:12:00.635Z,21.20
2019-01-30T10:14:02.279Z,26.53
2019-01-30T10:16:03.977Z,26.60
2019-01-30T10:18:06.316Z,38.33
2019-01-30T10:20:11.856Z,22.70
2019-01-30T10:22:13.512Z,22.83
2019-01-30T10:24:15.445Z,20.20
2019-01-30T10:26:17.113Z,25.43
2019-01-30T10:28:19.056Z,21.70
2019-01-30T10:30:26.149Z,23.63
2019-01-30T10:32:27.812Z,22.53
2019-01-30T10:34:29.565Z,22.13
2019-01-30T10:36:31.233Z,21.43
2019-01-30T10:38:32.882Z,18.83
2019-01-30T10:40:34.533Z,20.73
2019-01-30T10:42:36.196Z,19.10
2019-01-30T10:44:37.856Z,18.60
2019-01-30T10:46:39.867Z,26.53
2019-01-30T10:48:41.518Z,16.07
2019-01-30T10:50:43.168Z,19.17
2019-01-30T10:52:44.841Z,18.20
2019-01-30T10:54:46.786Z,19.83
2019-01-30T10:56:48.441Z,25.17
2019-01-30T10:58:50.088Z,24.10
2019-01-30T11:00:51.840Z,20.17
2019-01-30T11:02:53.493Z,18.50
2019-01-30T11:04:55.149Z,21.50
2019-01-30T11:06:56.803Z,21.10
2019-01-30T11:08:58.448Z,18.50
2019-01-30T11:11:07.583Z,22.60
2019-01-30T11:13:04.324Z,19.35
2019-01-30T11:15:08.222Z,19.97
2019-01-30T11:17:10.170Z,18.80
2019-01-30T11:19:11.816Z,19.87
2019-01-30T11:21:13.469Z,20.30
2019-01-30T11:23:15.132Z,25.23
2019-01-30T11:25:19.348Z,24.60
2019-01-30T11:27:21.289Z,14.03
2019-01-30T11:29:23.249Z,16.33
2019-01-30T11:31:24.886Z,20.10
2019-01-30T11:33:26.541Z,18.50
2019-01-30T11:35:28.425Z,23.23
2019-01-30T11:37:30.085Z,23.83
2019-01-30T11:39:32.007Z,22.17
2019-01-30T11:41:33.669Z,22.97
2019-01-30T11:43:35.320Z,18.50
2019-01-30T11:45:38.935Z,26.07
2019-01-30T11:47:40.601Z,20.00
2019-01-30T11:49:42.240Z,22.03
2019-01-30T11:51:43.880Z,25.13
2019-01-30T11:53:45.545Z,31.93
2019-01-30T11:55:47.196Z,19.17
2019-01-30T11:57:48.856Z,23.53
2019-01-30T11:59:50.505Z,20.17
2019-01-30T12:01:52.156Z,21.00
2019-01-30T12:03:53.799Z,16.13
2019-01-30T12:05:55.457Z,20.90
2019-01-30T12:07:57.153Z,19.80
2019-01-30T12:09:58.811Z,25.33
2019-01-30T12:12:00.455Z,25.93
2019-01-30T12:14:02.181Z,20.67
2019-01-30T12:16:04.203Z,21.47
2019-01-30T12:18:05.913Z,26.27
2019-01-30T12:20:08.136Z,22.10
2019-01-30T12:22:09.782Z,20.97
2019-01-30T12:24:11.726Z,25.03
2019-01-30T12:26:13.688Z,23.50
2019-01-30T12:28:15.344Z,22.77
2019-01-30T12:30:18.960Z,25.37
2019-01-30T12:32:20.612Z,25.30
2019-01-30T12:34:28.317Z,18.83
2019-01-30T12:36:26.096Z,22.70
2019-01-30T12:38:27.753Z,21.53
2019-01-30T12:40:29.400Z,26.10
2019-01-30T12:42:31.056Z,21.50
2019-01-30T12:44:33.625Z,25.30
2019-01-30T12:46:35.389Z,16.37
2019-01-30T12:48:37.061Z,25.00
2019-01-30T12:50:39.035Z,23.87
2019-01-30T12:52:40.685Z,22.65
2019-01-30T12:54:42.353Z,23.52
2019-01-30T12:56:44.300Z,29.33
2019-01-30T12:58:45.961Z,27.70
2019-01-30T13:00:47.730Z,19.98
2019-01-30T13:02:49.377Z,22.10
2019-01-30T13:04:51.319Z,25.10
2019-01-30T13:06:52.973Z,18.77
2019-01-30T13:08:54.823Z,25.68
2019-01-30T13:10:56.507Z,19.80
2019-01-30T13:12:58.165Z,24.18
2019-01-30T13:14:59.840Z,26.97
2019-01-30T13:17:01.492Z,22.40
2019-01-30T13:19:03.152Z,25.72
2019-01-30T13:21:04.829Z,26.70
2019-01-30T13:23:06.489Z,24.57
2019-01-30T13:25:08.268Z,24.20
2019-01-30T13:27:09.933Z,31.42
2019-01-30T13:29:11.591Z,64.27
2019-01-30T13:31:13.256Z,31.55
2019-01-30T13:33:15.012Z,21.87
2019-01-30T13:35:16.672Z,27.30
2019-01-30T13:37:18.333Z,31.57
2019-01-30T13:39:19.992Z,23.40
2019-01-30T13:41:21.974Z,32.08
2019-01-30T13:43:23.630Z,23.77
2019-01-30T13:45:26.121Z,28.52
2019-01-30T13:47:27.781Z,27.70
2019-01-30T13:49:29.443Z,24.70
2019-01-30T13:51:31.108Z,27.10
2019-01-30T13:53:33.005Z,19.75
2019-01-30T13:55:34.786Z,24.43
2019-01-30T13:57:36.445Z,22.87
2019-01-30T13:59:38.138Z,22.02
2019-01-30T14:01:39.925Z,21.93
2019-01-30T14:03:41.620Z,25.10
2019-01-30T14:05:43.633Z,23.92
2019-01-30T14:07:45.296Z,28.95
2019-01-30T14:09:47.341Z,25.95
2019-01-30T14:11:49.011Z,22.10
2019-01-30T14:13:50.661Z,23.18
2019-01-30T14:15:52.344Z,21.12
2019-01-30T14:17:54.233Z,25.77
2019-01-30T14:19:55.893Z,22.48
2019-01-30T14:21:57.565Z,26.60
2019-01-30T14:23:59.238Z,34.85
2019-01-30T14:26:00.982Z,29.27
2019-01-30T14:28:02.637Z,30.00
2019-01-30T14:30:08.100Z,28.45
2019-01-30T14:32:09.848Z,29.05
2019-01-30T14:34:11.527Z,26.17
2019-01-30T14:36:13.562Z,25.92
2019-01-30T14:38:15.364Z,24.07
2019-01-30T14:40:17.590Z,22.13
2019-01-30T14:42:19.641Z,22.52
2019-01-30T14:44:21.411Z,24.15
2019-01-30T14:46:23.422Z,24.98
2019-01-30T14:48:25.079Z,23.10
2019-01-30T14:50:27.055Z,39.18
2019-01-30T14:52:28.804Z,22.70
2019-01-30T14:54:30.756Z,32.80
2019-01-30T14:56:32.709Z,25.75
2019-01-30T14:58:34.356Z,26.50
2019-01-30T15:00:36.448Z,30.23
2019-01-30T15:02:38.142Z,22.15
2019-01-30T15:04:39.794Z,25.02
2019-01-30T15:06:41.480Z,17.20
2019-01-30T15:08:43.261Z,23.92
2019-01-30T15:10:44.990Z,28.85
2019-01-30T15:12:46.653Z,23.15
2019-01-30T15:14:48.317Z,26.82
2019-01-30T15:16:49.988Z,22.95
2019-01-30T15:18:51.742Z,19.10
2019-01-30T15:20:53.415Z,23.15
2019-01-30T15:22:55.837Z,25.92
2019-01-30T15:24:57.496Z,22.23
2019-01-30T15:26:59.167Z,24.12
2019-01-30T15:29:00.825Z,21.77
2019-01-30T15:31:02.476Z,24.52
2019-01-30T15:33:04.507Z,18.62
2019-01-30T15:35:06.280Z,29.18
2019-01-30T15:37:07.933Z,19.87
2019-01-30T15:39:09.601Z,23.25
2019-01-30T15:41:11.261Z,27.85
2019-01-30T15:43:12.932Z,26.82
2019-01-30T15:45:16.051Z,26.57
2019-01-30T15:47:17.706Z,22.73
2019-01-30T15:49:19.370Z,20.92
2019-01-30T15:51:21.290Z,26.40
2019-01-30T15:53:24.681Z,52.30
2019-01-30T15:55:26.365Z,33.42
2019-01-30T15:57:28.033Z,26.75
2019-01-30T15:59:29.684Z,30.35
2019-01-30T16:01:38.169Z,24.52
2019-01-30T16:03:39.827Z,26.55
2019-01-30T16:05:45.052Z,26.27
2019-01-30T16:07:45.061Z,34.67
2019-01-30T16:09:46.725Z,37.08
2019-01-30T16:11:50.439Z,22.60
2019-01-30T16:13:51.954Z,26.45
2019-01-30T16:15:56.280Z,22.30
2019-01-30T16:17:57.942Z,28.70
2019-01-30T16:19:59.599Z,26.07
2019-01-30T16:22:01.260Z,27.60
2019-01-30T16:24:03.507Z,24.63
2019-01-30T16:26:05.164Z,21.40
2019-01-30T16:28:06.828Z,24.55
2019-01-30T16:30:12.448Z,32.08
2019-01-30T16:32:14.856Z,29.67
2019-01-30T16:34:16.529Z,24.57
2019-01-30T16:36:18.227Z,25.40
2019-01-30T16:38:19.913Z,20.77
2019-01-30T16:40:21.764Z,20.45
2019-01-30T16:42:23.421Z,21.42
2019-01-30T16:44:25.433Z,20.92
2019-01-30T16:46:27.089Z,26.57
2019-01-30T16:48:30.912Z,20.25
2019-01-30T16:50:34.337Z,27.42
2019-01-30T16:52:35.873Z,21.95
2019-01-30T16:54:37.886Z,20.27
2019-01-30T16:56:39.546Z,29.40
2019-01-30T16:58:41.203Z,22.35
2019-01-30T17:00:42.865Z,25.02
2019-01-30T17:02:44.508Z,27.32
2019-01-30T17:04:46.186Z,24.10
2019-01-30T17:06:47.828Z,21.97
2019-01-30T17:08:49.489Z,23.98
2019-01-30T17:10:51.152Z,22.62
2019-01-30T17:12:52.810Z,22.80
2019-01-30T17:14:54.473Z,21.50
2019-01-30T17:16:56.465Z,21.17
2019-01-30T17:18:58.145Z,19.73
2019-01-30T17:20:59.804Z,25.62
2019-01-30T17:23:01.826Z,24.98
2019-01-30T17:25:05.039Z,23.57
2019-01-30T17:27:06.692Z,33.45
2019-01-30T17:29:08.381Z,22.22
2019-01-30T17:31:13.779Z,25.62
2019-01-30T17:33:16.235Z,25.12
2019-01-30T17:35:17.900Z,26.12
2019-01-30T17:37:19.561Z,31.35
2019-01-30T17:39:21.489Z,26.80
2019-01-30T17:41:23.153Z,22.82
2019-01-30T17:43:24.822Z,24.25
2019-01-30T17:45:26.500Z,29.77
2019-01-30T17:47:28.605Z,30.27
2019-01-30T17:49:30.352Z,22.07
2019-01-30T17:51:32.012Z,26.20
2019-01-30T17:53:33.689Z,23.87
2019-01-30T17:55:35.365Z,29.07
2019-01-30T17:57:37.122Z,23.57
2019-01-30T17:59:38.784Z,21.50
2019-01-30T18:01:42.833Z,24.77
2019-01-30T18:03:44.597Z,20.40
2019-01-30T18:05:46.304Z,20.90
2019-01-30T18:07:47.965Z,26.33
2019-01-30T18:09:49.628Z,21.20
2019-01-30T18:11:51.293Z,25.55
2019-01-30T18:13:53.254Z,26.48
2019-01-30T18:15:54.929Z,28.00
2019-01-30T18:17:56.582Z,20.32
2019-01-30T18:19:58.336Z,32.93
2019-01-30T18:21:59.988Z,22.77
2019-01-30T18:24:01.652Z,25.85
2019-01-30T18:26:03.331Z,28.62
2019-01-30T18:28:05.099Z,27.30
2019-01-30T18:30:09.467Z,22.70
2019-01-30T18:32:11.125Z,23.75
2019-01-30T18:34:12.787Z,25.25
2019-01-30T18:36:14.470Z,24.50
2019-01-30T18:38:16.125Z,27.65
2019-01-30T18:40:19.252Z,29.50
2019-01-30T18:42:20.900Z,25.77
2019-01-30T18:44:22.556Z,25.20
2019-01-30T18:46:24.221Z,32.60
2019-01-30T18:48:26.145Z,27.98
2019-01-30T18:50:27.831Z,24.80
2019-01-30T18:52:29.777Z,24.77
2019-01-30T18:54:31.469Z,21.15
2019-01-30T18:56:33.132Z,22.87
2019-01-30T18:58:34.788Z,25.05
2019-01-30T19:00:41.410Z,29.02
2019-01-30T19:02:43.051Z,25.48
2019-01-30T19:04:44.699Z,28.07
2019-01-30T19:06:52.489Z,20.70
2019-01-30T19:08:49.929Z,24.30
2019-01-30T19:10:51.604Z,28.57
2019-01-30T19:12:53.306Z,27.82
2019-01-30T19:14:54.962Z,22.07
2019-01-30T19:16:56.621Z,29.60
2019-01-30T19:18:58.255Z,23.38
2019-01-30T19:20:59.921Z,23.57
2019-01-30T19:23:01.583Z,28.98
2019-01-30T19:25:03.776Z,32.60
2019-01-30T19:27:05.437Z,28.90
2019-01-30T19:29:07.121Z,29.60
2019-01-30T19:31:08.781Z,25.97
2019-01-30T19:33:10.547Z,24.75
2019-01-30T19:35:12.495Z,25.75
2019-01-30T19:37:14.169Z,26.77
2019-01-30T19:39:15.825Z,32.08
2019-01-30T19:41:17.776Z,30.65
2019-01-30T19:43:19.737Z,27.90
2019-01-30T19:45:23.145Z,27.98
2019-01-30T19:47:24.799Z,26.10
2019-01-30T19:49:26.754Z,27.73
2019-01-30T19:51:28.707Z,31.37
2019-01-30T19:53:30.369Z,27.98
2019-01-30T19:55:32.037Z,26.37
2019-01-30T19:57:33.692Z,28.80
2019-01-30T19:59:35.353Z,26.70
2019-01-30T20:01:37.037Z,29.07
2019-01-30T20:03:38.997Z,28.50
2019-01-30T20:05:40.673Z,29.20
2019-01-30T20:07:42.324Z,33.75
2019-01-30T20:09:44.977Z,30.30
2019-01-30T20:11:46.839Z,28.70
2019-01-30T20:13:48.501Z,31.77
2019-01-30T20:15:50.173Z,27.13
2019-01-30T20:17:51.842Z,26.25
2019-01-30T20:19:53.598Z,28.30
2019-01-30T20:21:55.578Z,20.25
2019-01-30T20:23:57.525Z,27.55
2019-01-30T20:25:59.192Z,27.52
2019-01-30T20:28:00.848Z,34.80
2019-01-30T20:30:03.491Z,24.87
2019-01-30T20:32:05.186Z,27.42
2019-01-30T20:34:10.337Z,26.25
2019-01-30T20:36:10.400Z,21.48
2019-01-30T20:38:12.052Z,31.77
2019-01-30T20:40:21.585Z,22.42
2019-01-30T20:42:23.257Z,22.93
2019-01-30T20:44:24.914Z,23.07
2019-01-30T20:46:26.596Z,33.35
2019-01-30T20:48:28.501Z,23.52
2019-01-30T20:50:30.173Z,22.25
2019-01-30T20:52:31.867Z,22.37
2019-01-30T20:54:33.507Z,27.20
2019-01-30T20:56:35.173Z,23.75
2019-01-30T20:58:36.833Z,28.17
2019-01-30T21:00:38.488Z,24.12
2019-01-30T21:02:40.152Z,27.15
2019-01-30T21:04:41.804Z,26.07
2019-01-30T21:06:43.462Z,26.70
2019-01-30T21:08:45.129Z,28.92
2019-01-30T21:10:46.790Z,27.73
2019-01-30T21:12:48.460Z,30.57
2019-01-30T21:14:50.869Z,26.37
2019-01-30T21:16:52.552Z,29.12
2019-01-30T21:18:54.213Z,30.05
2019-01-30T21:20:55.873Z,27.07
2019-01-30T21:22:57.587Z,30.88
2019-01-30T21:24:59.232Z,29.37
2019-01-30T21:27:01.179Z,32.28
2019-01-30T21:29:02.827Z,23.57
2019-01-30T21:31:04.480Z,34.73
2019-01-30T21:33:06.169Z,27.95
2019-01-30T21:35:07.825Z,33.98
2019-01-30T21:37:09.494Z,31.85
2019-01-30T21:39:11.448Z,37.90
2019-01-30T21:41:13.142Z,31.95
2019-01-30T21:43:15.006Z,29.42
2019-01-30T21:45:18.221Z,26.02
2019-01-30T21:47:19.911Z,27.58
2019-01-30T21:49:21.641Z,24.20
2019-01-30T21:51:23.288Z,29.18
2019-01-30T21:53:24.962Z,28.62
2019-01-30T21:55:26.612Z,25.72
2019-01-30T21:57:28.297Z,27.87
2019-01-30T21:59:30.278Z,24.60
2019-01-30T22:01:31.934Z,29.65
2019-01-30T22:03:33.647Z,30.52
2019-01-30T22:05:35.369Z,31.48
2019-01-30T22:07:37.065Z,27.93
2019-01-30T22:09:38.729Z,29.77
2019-01-30T22:11:40.377Z,29.75
2019-01-30T22:13:42.041Z,33.23
2019-01-30T22:15:43.695Z,33.30
2019-01-30T22:17:45.365Z,28.67
2019-01-30T22:19:47.020Z,31.65
2019-01-30T22:21:48.788Z,33.15
2019-01-30T22:23:50.769Z,29.75
2019-01-30T22:25:52.429Z,30.80
2019-01-30T22:27:54.080Z,35.58
2019-01-30T22:29:55.759Z,31.55
2019-01-30T22:31:57.396Z,32.65
2019-01-30T22:33:59.069Z,28.30
2019-01-30T22:36:01.020Z,32.10
2019-01-30T22:38:12.080Z,30.52
2019-01-30T22:40:07.819Z,27.77
2019-01-30T22:42:09.767Z,28.17
2019-01-30T22:44:11.437Z,33.45
2019-01-30T22:46:13.096Z,35.28
2019-01-30T22:48:14.764Z,32.70
2019-01-30T22:50:16.642Z,27.95
2019-01-30T22:52:18.535Z,31.37
2019-01-30T22:54:20.209Z,31.73
2019-01-30T22:56:21.881Z,32.42
2019-01-30T22:58:23.541Z,31.65
2019-01-30T23:00:59.545Z,33.90
2019-01-30T23:03:01.233Z,37.48
2019-01-30T23:05:18.146Z,29.77
2019-01-30T23:07:51.827Z,30.15
2019-01-30T23:10:32.376Z,31.70
2019-01-30T23:12:51.341Z,30.88
2019-01-30T23:14:59.057Z,32.53
2019-01-30T23:17:28.973Z,28.30
2019-01-30T23:19:53.535Z,27.35
2019-01-30T23:22:09.753Z,30.90
2019-01-30T23:24:24.916Z,33.00
2019-01-30T23:26:34.751Z,27.10
2019-01-30T23:29:11.081Z,26.40
2019-01-30T23:31:32.334Z,29.95
2019-01-30T23:33:58.343Z,31.30
2019-01-30T23:36:50.677Z,26.35
2019-01-30T23:39:34.753Z,27.05
2019-01-30T23:42:00.661Z,29.52
2019-01-30T23:44:45.486Z,30.37
2019-01-30T23:47:04.181Z,33.85
2019-01-30T23:49:53.301Z,26.27
2019-01-30T23:52:32.778Z,29.02
2019-01-30T23:54:45.389Z,24.37
2019-01-30T23:56:57.589Z,35.28
2019-01-30T23:59:37.339Z,30.60
